Terminal Aerodrome Forecast
Issued by NWS

Home | Current Version | Previous Version | Text Only | Print | Product List | Glossary On
Versions: 1 2 3 4 5 6 7 8 9 10 11 12 13 14
000
FTUS46 KLOX 030540
TAFBUR
TAF
KBUR 030540Z 0306/0406 14006KT P6SM SKC
     FM031200 VRB03KT 5SM BR OVC007
     FM031700 VRB03KT P6SM SCT250
     FM032100 18008KT P6SM SCT250
     FM040400 VRB03KT P6SM SKC=

USA.gov is the U.S. government's official web portal to all federal, state and local government web resources and services.